createdAt,value
2023-01-03T00:04:35.348Z,44.72
2023-01-03T00:14:39.000Z,44.82
2023-01-03T00:24:40.422Z,44.74
2023-01-03T00:34:44.106Z,44.87
2023-01-03T00:44:45.563Z,44.89
2023-01-03T00:54:46.978Z,44.88
2023-01-03T01:04:48.614Z,44.73
2023-01-03T01:14:50.191Z,44.91
2023-01-03T01:24:51.596Z,44.86
2023-01-03T01:34:53.005Z,44.90
2023-01-03T01:44:59.054Z,44.85
2023-01-03T01:55:01.859Z,45.04
2023-01-03T02:05:04.898Z,45.21
2023-01-03T02:15:35.047Z,45.12
2023-01-03T02:25:36.419Z,45.31
2023-01-03T02:35:44.168Z,45.20
2023-01-03T02:46:08.043Z,45.27
2023-01-03T02:56:15.162Z,45.38
2023-01-03T03:06:44.654Z,45.35
2023-01-03T03:16:48.059Z,45.45
2023-01-03T03:26:49.454Z,45.57
2023-01-03T03:36:59.384Z,45.55
2023-01-03T03:47:24.155Z,45.61
2023-01-03T03:57:29.348Z,45.62
2023-01-03T04:07:30.735Z,45.65
2023-01-03T04:17:32.399Z,45.69
2023-01-03T04:27:34.064Z,45.70
2023-01-03T04:37:35.472Z,45.70
2023-01-03T04:47:36.863Z,45.70
2023-01-03T04:57:38.238Z,45.53
2023-01-03T05:07:39.628Z,45.57
2023-01-03T05:17:41.102Z,45.44
2023-01-03T05:27:42.582Z,45.29
2023-01-03T05:37:43.963Z,44.93
2023-01-03T05:47:45.484Z,44.71
2023-01-03T05:57:47.591Z,44.46
2023-01-03T06:07:49.128Z,44.29
2023-01-03T06:17:58.931Z,44.16
2023-01-03T06:28:00.544Z,44.00
2023-01-03T06:38:02.059Z,44.39
2023-01-03T06:48:25.860Z,44.64
2023-01-03T06:58:28.174Z,44.70
2023-01-03T07:08:29.716Z,44.83
2023-01-03T07:18:31.679Z,44.93
2023-01-03T07:28:33.070Z,45.05
2023-01-03T07:38:34.609Z,44.96
2023-01-03T07:48:36.095Z,45.04
2023-01-03T07:58:37.725Z,44.98
2023-01-03T08:08:39.179Z,44.96
2023-01-03T08:18:40.903Z,44.94
2023-01-03T08:28:42.910Z,44.90
2023-01-03T08:38:51.461Z,44.90
2023-01-03T08:48:52.871Z,44.76
2023-01-03T08:58:57.516Z,44.76
2023-01-03T09:08:59.583Z,44.58
2023-01-03T09:19:02.544Z,43.42
2023-01-03T09:29:04.480Z,42.90
2023-01-03T09:39:06.127Z,43.11
2023-01-03T09:49:07.536Z,43.21
2023-01-03T09:59:32.760Z,43.39
2023-01-03T10:10:01.120Z,43.33
2023-01-03T10:20:11.616Z,43.38
2023-01-03T10:30:16.119Z,43.59
2023-01-03T10:40:17.554Z,43.30
2023-01-03T10:50:22.558Z,43.25
2023-01-03T11:00:33.388Z,43.36
2023-01-03T11:10:38.507Z,43.39
2023-01-03T11:21:05.843Z,43.34
2023-01-03T11:31:33.541Z,43.31
2023-01-03T11:41:54.855Z,43.29
2023-01-03T11:52:09.798Z,43.27
2023-01-03T12:02:46.644Z,43.46
2023-01-03T12:13:07.345Z,43.46
2023-01-03T12:23:15.639Z,43.45
2023-01-03T12:33:30.855Z,43.36
2023-01-03T12:43:47.867Z,43.27
2023-01-03T12:53:56.654Z,43.24
2023-01-03T13:03:59.288Z,43.29
2023-01-03T13:14:05.609Z,43.27
2023-01-03T13:24:07.162Z,43.28
2023-01-03T13:34:15.846Z,43.23
2023-01-03T13:44:23.076Z,43.25
2023-01-03T13:54:35.101Z,43.21
2023-01-03T14:04:45.259Z,43.08
2023-01-03T14:14:51.945Z,43.17
2023-01-03T14:24:57.391Z,43.09
2023-01-03T14:34:59.074Z,42.97
2023-01-03T14:45:04.677Z,43.25
2023-01-03T14:55:08.418Z,43.26
2023-01-03T15:05:28.527Z,43.45
2023-01-03T15:15:34.008Z,43.45
2023-01-03T15:25:40.785Z,43.67
2023-01-03T15:35:42.615Z,43.68
2023-01-03T15:45:44.178Z,43.87
2023-01-03T15:55:45.618Z,43.92
2023-01-03T16:05:47.058Z,44.05
2023-01-03T16:15:48.437Z,44.08
2023-01-03T16:25:49.821Z,44.11
2023-01-03T16:35:51.188Z,44.30
2023-01-03T16:45:58.316Z,44.32
2023-01-03T16:56:00.409Z,44.40
2023-01-03T17:06:01.847Z,44.45
2023-01-03T17:16:04.014Z,44.43
2023-01-03T17:26:05.586Z,44.60
2023-01-03T17:36:11.054Z,44.45
2023-01-03T17:46:37.667Z,44.57
2023-01-03T17:56:40.475Z,44.59
2023-01-03T18:06:41.900Z,44.71
2023-01-03T18:16:43.632Z,44.71
2023-01-03T18:26:47.935Z,44.79
2023-01-03T18:36:52.539Z,44.72
2023-01-03T18:46:54.053Z,44.50
2023-01-03T18:56:55.526Z,44.66
2023-01-03T19:06:58.999Z,44.76
2023-01-03T19:17:00.429Z,44.65
2023-01-03T19:27:08.178Z,44.75
2023-01-03T19:37:10.287Z,44.64
2023-01-03T19:47:16.525Z,44.53
2023-01-03T19:57:24.980Z,44.40
2023-01-03T20:07:26.569Z,44.25
2023-01-03T20:17:28.100Z,44.47
2023-01-03T20:27:29.507Z,44.54
2023-01-03T20:37:30.879Z,44.24
2023-01-03T20:47:32.255Z,44.38
2023-01-03T20:57:33.863Z,44.81
2023-01-03T21:07:53.855Z,44.76
2023-01-03T21:17:55.435Z,44.60
2023-01-03T21:27:56.952Z,44.67
2023-01-03T21:37:58.539Z,44.08
2023-01-03T21:48:00.800Z,44.85
2023-01-03T21:58:02.350Z,44.77
2023-01-03T22:08:03.825Z,44.60
2023-01-03T22:18:10.809Z,44.46
2023-01-03T22:28:12.217Z,44.50
2023-01-03T22:38:13.606Z,44.65
2023-01-03T22:48:15.153Z,44.56
2023-01-03T22:58:17.503Z,44.61
2023-01-03T23:08:19.040Z,44.36
2023-01-03T23:18:20.580Z,44.57
2023-01-03T23:28:22.125Z,44.28
2023-01-03T23:38:23.655Z,44.43
2023-01-03T23:48:25.049Z,44.77
2023-01-03T23:58:26.441Z,44.73
